sensor_id;sensor_type;location;lat;lon;timestamp;temperature;humidity
53748;DHT22;39655;53.210;5.768;2023-10-13T00:01:22;13.80;97.60
53748;DHT22;39655;53.210;5.768;2023-10-13T00:03:49;13.80;97.60
53748;DHT22;39655;53.210;5.768;2023-10-13T00:06:18;13.80;97.60
53748;DHT22;39655;53.210;5.768;2023-10-13T00:08:44;13.80;97.60
53748;DHT22;39655;53.210;5.768;2023-10-13T00:11:15;13.90;97.70
53748;DHT22;39655;53.210;5.768;2023-10-13T00:13:41;14.00;97.70
53748;DHT22;39655;53.210;5.768;2023-10-13T00:16:17;14.00;97.70
53748;DHT22;39655;53.210;5.768;2023-10-13T00:18:47;14.10;97.70
53748;DHT22;39655;53.210;5.768;2023-10-13T00:21:14;14.10;97.80
53748;DHT22;39655;53.210;5.768;2023-10-13T00:23:57;14.20;97.80
53748;DHT22;39655;53.210;5.768;2023-10-13T00:26:25;14.30;97.70
53748;DHT22;39655;53.210;5.768;2023-10-13T00:28:53;14.40;97.80
53748;DHT22;39655;53.210;5.768;2023-10-13T00:31:42;14.50;97.80
53748;DHT22;39655;53.210;5.768;2023-10-13T00:34:09;14.60;97.80
53748;DHT22;39655;53.210;5.768;2023-10-13T00:36:45;14.60;97.80
53748;DHT22;39655;53.210;5.768;2023-10-13T00:39:15;14.70;97.80
53748;DHT22;39655;53.210;5.768;2023-10-13T00:41:43;14.80;97.80
53748;DHT22;39655;53.210;5.768;2023-10-13T00:44:23;14.90;97.70
53748;DHT22;39655;53.210;5.768;2023-10-13T00:47:07;15.10;97.80
53748;DHT22;39655;53.210;5.768;2023-10-13T00:49:36;15.20;97.80
53748;DHT22;39655;53.210;5.768;2023-10-13T00:52:08;15.20;97.70
53748;DHT22;39655;53.210;5.768;2023-10-13T00:54:37;15.30;97.70
53748;DHT22;39655;53.210;5.768;2023-10-13T00:57:03;15.30;97.70
53748;DHT22;39655;53.210;5.768;2023-10-13T00:59:32;15.40;97.70
53748;DHT22;39655;53.210;5.768;2023-10-13T01:02:02;15.40;97.60
53748;DHT22;39655;53.210;5.768;2023-10-13T01:04:48;15.40;97.70
53748;DHT22;39655;53.210;5.768;2023-10-13T01:07:14;15.40;97.60
53748;DHT22;39655;53.210;5.768;2023-10-13T01:09:42;15.40;97.70
53748;DHT22;39655;53.210;5.768;2023-10-13T01:12:08;15.50;97.70
53748;DHT22;39655;53.210;5.768;2023-10-13T01:14:34;15.50;97.70
53748;DHT22;39655;53.210;5.768;2023-10-13T01:17:01;15.50;97.60
53748;DHT22;39655;53.210;5.768;2023-10-13T01:19:27;15.60;97.70
53748;DHT22;39655;53.210;5.768;2023-10-13T01:21:54;15.60;97.70
53748;DHT22;39655;53.210;5.768;2023-10-13T01:24:27;15.60;97.70
53748;DHT22;39655;53.210;5.768;2023-10-13T01:26:57;15.70;97.80
53748;DHT22;39655;53.210;5.768;2023-10-13T01:29:23;15.70;97.70
53748;DHT22;39655;53.210;5.768;2023-10-13T01:31:54;15.80;97.80
53748;DHT22;39655;53.210;5.768;2023-10-13T01:34:20;15.80;97.70
53748;DHT22;39655;53.210;5.768;2023-10-13T01:36:53;15.80;97.70
53748;DHT22;39655;53.210;5.768;2023-10-13T01:39:23;15.80;97.70
53748;DHT22;39655;53.210;5.768;2023-10-13T01:41:54;15.80;97.70
53748;DHT22;39655;53.210;5.768;2023-10-13T01:44:26;15.80;97.80
53748;DHT22;39655;53.210;5.768;2023-10-13T01:46:53;15.80;97.70
53748;DHT22;39655;53.210;5.768;2023-10-13T01:49:19;15.90;97.80
53748;DHT22;39655;53.210;5.768;2023-10-13T01:51:47;15.90;97.70
53748;DHT22;39655;53.210;5.768;2023-10-13T01:54:13;15.90;97.70
53748;DHT22;39655;53.210;5.768;2023-10-13T01:56:41;15.80;97.80
53748;DHT22;39655;53.210;5.768;2023-10-13T01:59:13;15.90;97.80
53748;DHT22;39655;53.210;5.768;2023-10-13T02:01:39;15.90;97.90
53748;DHT22;39655;53.210;5.768;2023-10-13T02:04:07;15.90;97.90
53748;DHT22;39655;53.210;5.768;2023-10-13T02:06:36;15.90;97.80
53748;DHT22;39655;53.210;5.768;2023-10-13T02:09:04;15.90;97.90
53748;DHT22;39655;53.210;5.768;2023-10-13T02:11:43;15.90;97.90
53748;DHT22;39655;53.210;5.768;2023-10-13T02:14:12;15.90;97.90
53748;DHT22;39655;53.210;5.768;2023-10-13T02:16:38;15.90;97.90
53748;DHT22;39655;53.210;5.768;2023-10-13T02:19:04;15.90;97.90
53748;DHT22;39655;53.210;5.768;2023-10-13T02:21:33;15.90;97.90
53748;DHT22;39655;53.210;5.768;2023-10-13T02:24:07;16.00;98.00
53748;DHT22;39655;53.210;5.768;2023-10-13T02:26:40;15.90;98.00
53748;DHT22;39655;53.210;5.768;2023-10-13T02:29:05;15.90;98.00
53748;DHT22;39655;53.210;5.768;2023-10-13T02:31:39;16.00;98.00
53748;DHT22;39655;53.210;5.768;2023-10-13T02:34:05;15.90;98.00
53748;DHT22;39655;53.210;5.768;2023-10-13T02:36:38;15.90;98.00
53748;DHT22;39655;53.210;5.768;2023-10-13T02:39:15;16.00;98.10
53748;DHT22;39655;53.210;5.768;2023-10-13T02:41:51;16.00;98.10
53748;DHT22;39655;53.210;5.768;2023-10-13T02:44:17;15.90;98.10
53748;DHT22;39655;53.210;5.768;2023-10-13T02:46:59;16.00;98.10
53748;DHT22;39655;53.210;5.768;2023-10-13T02:49:28;15.90;98.00
53748;DHT22;39655;53.210;5.768;2023-10-13T02:52:00;15.90;98.00
53748;DHT22;39655;53.210;5.768;2023-10-13T02:54:32;16.00;98.10
53748;DHT22;39655;53.210;5.768;2023-10-13T02:57:05;15.90;98.10
53748;DHT22;39655;53.210;5.768;2023-10-13T02:59:32;16.00;98.20
53748;DHT22;39655;53.210;5.768;2023-10-13T03:02:12;16.00;98.10
53748;DHT22;39655;53.210;5.768;2023-10-13T03:04:57;16.00;98.10
53748;DHT22;39655;53.210;5.768;2023-10-13T03:07:26;16.00;98.10
53748;DHT22;39655;53.210;5.768;2023-10-13T03:09:55;16.10;98.20
53748;DHT22;39655;53.210;5.768;2023-10-13T03:12:25;16.10;98.20
53748;DHT22;39655;53.210;5.768;2023-10-13T03:14:51;16.10;98.20
53748;DHT22;39655;53.210;5.768;2023-10-13T03:17:37;16.00;98.20
53748;DHT22;39655;53.210;5.768;2023-10-13T03:20:15;16.10;98.20
53748;DHT22;39655;53.210;5.768;2023-10-13T03:22:48;16.10;98.20
53748;DHT22;39655;53.210;5.768;2023-10-13T03:25:18;16.10;98.20
53748;DHT22;39655;53.210;5.768;2023-10-13T03:27:50;16.10;98.30
53748;DHT22;39655;53.210;5.768;2023-10-13T03:30:16;16.10;98.20
53748;DHT22;39655;53.210;5.768;2023-10-13T03:32:42;16.10;98.20
53748;DHT22;39655;53.210;5.768;2023-10-13T03:35:14;16.20;98.20
53748;DHT22;39655;53.210;5.768;2023-10-13T03:37:49;16.10;98.20
53748;DHT22;39655;53.210;5.768;2023-10-13T03:40:15;16.10;98.30
53748;DHT22;39655;53.210;5.768;2023-10-13T03:42:51;16.10;98.20
53748;DHT22;39655;53.210;5.768;2023-10-13T03:45:33;16.10;98.20
53748;DHT22;39655;53.210;5.768;2023-10-13T03:48:02;16.10;98.20
53748;DHT22;39655;53.210;5.768;2023-10-13T03:50:40;16.10;98.30
53748;DHT22;39655;53.210;5.768;2023-10-13T03:53:14;16.10;98.30
53748;DHT22;39655;53.210;5.768;2023-10-13T03:55:40;16.10;98.30
53748;DHT22;39655;53.210;5.768;2023-10-13T03:58:14;16.10;98.30
53748;DHT22;39655;53.210;5.768;2023-10-13T04:00:40;16.10;98.30
53748;DHT22;39655;53.210;5.768;2023-10-13T04:03:08;16.10;98.30
53748;DHT22;39655;53.210;5.768;2023-10-13T04:05:35;16.10;98.30
53748;DHT22;39655;53.210;5.768;2023-10-13T04:08:26;16.10;98.30
53748;DHT22;39655;53.210;5.768;2023-10-13T04:10:58;16.10;98.30
53748;DHT22;39655;53.210;5.768;2023-10-13T04:13:23;16.10;98.40
53748;DHT22;39655;53.210;5.768;2023-10-13T04:16:07;16.10;98.30
53748;DHT22;39655;53.210;5.768;2023-10-13T04:18:51;16.10;98.40
53748;DHT22;39655;53.210;5.768;2023-10-13T04:21:22;16.10;98.40
53748;DHT22;39655;53.210;5.768;2023-10-13T04:24:05;16.10;98.40
53748;DHT22;39655;53.210;5.768;2023-10-13T04:26:53;16.10;98.40
53748;DHT22;39655;53.210;5.768;2023-10-13T04:29:38;16.10;98.40
53748;DHT22;39655;53.210;5.768;2023-10-13T04:32:22;16.10;98.50
53748;DHT22;39655;53.210;5.768;2023-10-13T04:34:59;16.10;98.40
53748;DHT22;39655;53.210;5.768;2023-10-13T04:37:37;16.10;98.50
53748;DHT22;39655;53.210;5.768;2023-10-13T04:40:19;16.10;98.40
53748;DHT22;39655;53.210;5.768;2023-10-13T04:42:52;16.20;98.50
53748;DHT22;39655;53.210;5.768;2023-10-13T04:45:30;16.20;98.50
53748;DHT22;39655;53.210;5.768;2023-10-13T04:47:57;16.20;98.50
53748;DHT22;39655;53.210;5.768;2023-10-13T04:50:23;16.20;98.60
53748;DHT22;39655;53.210;5.768;2023-10-13T04:52:59;16.20;98.60
53748;DHT22;39655;53.210;5.768;2023-10-13T04:55:39;16.20;98.60
53748;DHT22;39655;53.210;5.768;2023-10-13T04:58:25;16.20;98.60
53748;DHT22;39655;53.210;5.768;2023-10-13T05:01:09;16.20;98.60
53748;DHT22;39655;53.210;5.768;2023-10-13T05:03:55;16.20;98.60
53748;DHT22;39655;53.210;5.768;2023-10-13T05:06:39;16.20;98.60
53748;DHT22;39655;53.210;5.768;2023-10-13T05:09:12;16.20;98.60
53748;DHT22;39655;53.210;5.768;2023-10-13T05:12:07;16.20;98.60
53748;DHT22;39655;53.210;5.768;2023-10-13T05:14:51;16.20;98.70
53748;DHT22;39655;53.210;5.768;2023-10-13T05:17:39;16.10;98.60
53748;DHT22;39655;53.210;5.768;2023-10-13T05:20:23;16.10;98.70
53748;DHT22;39655;53.210;5.768;2023-10-13T05:23:07;16.10;98.60
53748;DHT22;39655;53.210;5.768;2023-10-13T05:25:54;16.10;98.60
53748;DHT22;39655;53.210;5.768;2023-10-13T05:28:38;16.10;98.70
53748;DHT22;39655;53.210;5.768;2023-10-13T05:31:22;16.10;98.70
53748;DHT22;39655;53.210;5.768;2023-10-13T05:34:10;16.10;98.70
53748;DHT22;39655;53.210;5.768;2023-10-13T05:36:57;16.10;98.70
53748;DHT22;39655;53.210;5.768;2023-10-13T05:39:45;16.10;98.70
53748;DHT22;39655;53.210;5.768;2023-10-13T05:42:31;16.10;98.70
53748;DHT22;39655;53.210;5.768;2023-10-13T05:45:16;16.00;98.70
53748;DHT22;39655;53.210;5.768;2023-10-13T05:47:41;15.90;98.70
53748;DHT22;39655;53.210;5.768;2023-10-13T05:50:08;15.80;98.70
53748;DHT22;39655;53.210;5.768;2023-10-13T05:52:49;15.80;98.70
53748;DHT22;39655;53.210;5.768;2023-10-13T05:55:28;15.70;98.70
53748;DHT22;39655;53.210;5.768;2023-10-13T05:58:13;15.70;98.70
53748;DHT22;39655;53.210;5.768;2023-10-13T06:00:58;15.70;98.70
53748;DHT22;39655;53.210;5.768;2023-10-13T06:03:42;15.60;98.70
53748;DHT22;39655;53.210;5.768;2023-10-13T06:06:27;15.60;98.70
53748;DHT22;39655;53.210;5.768;2023-10-13T06:09:11;15.70;98.80
53748;DHT22;39655;53.210;5.768;2023-10-13T06:11:55;15.60;98.80
53748;DHT22;39655;53.210;5.768;2023-10-13T06:14:40;15.70;98.80
53748;DHT22;39655;53.210;5.768;2023-10-13T06:17:24;15.70;98.80
53748;DHT22;39655;53.210;5.768;2023-10-13T06:20:08;15.70;98.90
53748;DHT22;39655;53.210;5.768;2023-10-13T06:22:53;15.70;98.80
53748;DHT22;39655;53.210;5.768;2023-10-13T06:25:37;15.80;98.90
53748;DHT22;39655;53.210;5.768;2023-10-13T06:28:22;15.80;98.90
53748;DHT22;39655;53.210;5.768;2023-10-13T06:31:06;15.90;99.00
53748;DHT22;39655;53.210;5.768;2023-10-13T06:33:42;16.00;99.00
53748;DHT22;39655;53.210;5.768;2023-10-13T06:36:20;16.10;99.00
53748;DHT22;39655;53.210;5.768;2023-10-13T06:39:13;16.10;99.00
53748;DHT22;39655;53.210;5.768;2023-10-13T06:42:14;16.10;99.00
53748;DHT22;39655;53.210;5.768;2023-10-13T06:48:42;16.20;98.90
53748;DHT22;39655;53.210;5.768;2023-10-13T06:51:33;16.20;98.90
53748;DHT22;39655;53.210;5.768;2023-10-13T06:54:32;16.10;98.90
53748;DHT22;39655;53.210;5.768;2023-10-13T06:57:25;16.10;98.90
53748;DHT22;39655;53.210;5.768;2023-10-13T07:00:03;16.20;98.90
53748;DHT22;39655;53.210;5.768;2023-10-13T07:02:59;16.10;98.90
53748;DHT22;39655;53.210;5.768;2023-10-13T07:05:54;16.10;98.90
53748;DHT22;39655;53.210;5.768;2023-10-13T07:08:55;16.20;98.90
53748;DHT22;39655;53.210;5.768;2023-10-13T07:11:51;16.10;98.90
53748;DHT22;39655;53.210;5.768;2023-10-13T07:14:25;16.20;99.00
53748;DHT22;39655;53.210;5.768;2023-10-13T07:17:04;16.10;99.00
53748;DHT22;39655;53.210;5.768;2023-10-13T07:19:40;16.10;99.00
53748;DHT22;39655;53.210;5.768;2023-10-13T07:22:30;16.10;98.90
53748;DHT22;39655;53.210;5.768;2023-10-13T07:25:12;16.10;99.00
53748;DHT22;39655;53.210;5.768;2023-10-13T07:27:49;16.00;99.00
53748;DHT22;39655;53.210;5.768;2023-10-13T07:30:22;16.00;99.00
53748;DHT22;39655;53.210;5.768;2023-10-13T07:32:59;15.90;99.00
53748;DHT22;39655;53.210;5.768;2023-10-13T07:35:34;15.90;99.00
53748;DHT22;39655;53.210;5.768;2023-10-13T07:38:01;15.80;99.00
53748;DHT22;39655;53.210;5.768;2023-10-13T07:40:29;15.80;99.00
53748;DHT22;39655;53.210;5.768;2023-10-13T07:43:05;15.80;99.00
53748;DHT22;39655;53.210;5.768;2023-10-13T07:45:38;15.70;99.00
53748;DHT22;39655;53.210;5.768;2023-10-13T07:48:11;15.70;99.00
53748;DHT22;39655;53.210;5.768;2023-10-13T07:50:57;15.70;99.00
53748;DHT22;39655;53.210;5.768;2023-10-13T07:53:26;15.70;99.00
53748;DHT22;39655;53.210;5.768;2023-10-13T07:55:53;15.70;99.00
53748;DHT22;39655;53.210;5.768;2023-10-13T07:58:23;15.70;99.00
53748;DHT22;39655;53.210;5.768;2023-10-13T08:00:51;15.70;99.00
53748;DHT22;39655;53.210;5.768;2023-10-13T08:03:34;15.80;99.00
53748;DHT22;39655;53.210;5.768;2023-10-13T08:06:09;15.80;99.10
53748;DHT22;39655;53.210;5.768;2023-10-13T08:08:38;15.80;99.00
53748;DHT22;39655;53.210;5.768;2023-10-13T08:11:11;15.80;99.10
53748;DHT22;39655;53.210;5.768;2023-10-13T08:13:53;15.90;99.10
53748;DHT22;39655;53.210;5.768;2023-10-13T08:16:29;15.90;99.10
53748;DHT22;39655;53.210;5.768;2023-10-13T08:19:14;16.00;99.10
53748;DHT22;39655;53.210;5.768;2023-10-13T08:21:42;16.00;99.10
53748;DHT22;39655;53.210;5.768;2023-10-13T08:24:15;16.10;99.10
53748;DHT22;39655;53.210;5.768;2023-10-13T08:26:42;16.10;99.10
53748;DHT22;39655;53.210;5.768;2023-10-13T08:29:28;16.10;99.20
53748;DHT22;39655;53.210;5.768;2023-10-13T08:31:54;16.20;99.10
53748;DHT22;39655;53.210;5.768;2023-10-13T08:34:29;16.20;99.10
53748;DHT22;39655;53.210;5.768;2023-10-13T08:37:07;16.20;99.20
53748;DHT22;39655;53.210;5.768;2023-10-13T08:39:56;16.20;99.10
53748;DHT22;39655;53.210;5.768;2023-10-13T08:42:45;16.30;99.20
53748;DHT22;39655;53.210;5.768;2023-10-13T08:45:13;16.30;99.20
53748;DHT22;39655;53.210;5.768;2023-10-13T08:47:54;16.40;99.20
53748;DHT22;39655;53.210;5.768;2023-10-13T08:50:43;16.50;99.20
53748;DHT22;39655;53.210;5.768;2023-10-13T08:53:22;16.50;99.20
53748;DHT22;39655;53.210;5.768;2023-10-13T08:56:07;16.50;99.20
53748;DHT22;39655;53.210;5.768;2023-10-13T08:58:46;16.60;99.20
53748;DHT22;39655;53.210;5.768;2023-10-13T09:01:22;16.70;99.20
53748;DHT22;39655;53.210;5.768;2023-10-13T09:04:01;16.80;99.20
53748;DHT22;39655;53.210;5.768;2023-10-13T09:06:51;16.80;99.20
53748;DHT22;39655;53.210;5.768;2023-10-13T09:09:44;16.90;99.20
53748;DHT22;39655;53.210;5.768;2023-10-13T09:12:30;17.00;99.20
53748;DHT22;39655;53.210;5.768;2023-10-13T09:15:04;17.10;99.20
53748;DHT22;39655;53.210;5.768;2023-10-13T09:17:46;17.20;99.20
53748;DHT22;39655;53.210;5.768;2023-10-13T09:20:29;17.40;99.20
53748;DHT22;39655;53.210;5.768;2023-10-13T09:23:13;17.50;99.20
53748;DHT22;39655;53.210;5.768;2023-10-13T09:25:50;17.50;99.20
53748;DHT22;39655;53.210;5.768;2023-10-13T09:28:35;17.60;99.10
53748;DHT22;39655;53.210;5.768;2023-10-13T09:31:03;17.70;99.10
53748;DHT22;39655;53.210;5.768;2023-10-13T09:33:33;17.70;99.00
53748;DHT22;39655;53.210;5.768;2023-10-13T09:36:02;17.70;98.90
53748;DHT22;39655;53.210;5.768;2023-10-13T09:38:36;17.70;98.80
53748;DHT22;39655;53.210;5.768;2023-10-13T09:41:05;17.70;98.60
53748;DHT22;39655;53.210;5.768;2023-10-13T09:43:44;17.80;98.40
53748;DHT22;39655;53.210;5.768;2023-10-13T09:46:10;17.90;98.20
53748;DHT22;39655;53.210;5.768;2023-10-13T09:48:46;17.90;98.00
53748;DHT22;39655;53.210;5.768;2023-10-13T09:51:17;17.90;97.90
53748;DHT22;39655;53.210;5.768;2023-10-13T09:54:00;17.90;97.70
53748;DHT22;39655;53.210;5.768;2023-10-13T09:56:37;18.00;97.30
53748;DHT22;39655;53.210;5.768;2023-10-13T09:59:21;18.10;97.10
53748;DHT22;39655;53.210;5.768;2023-10-13T10:01:48;18.10;96.80
53748;DHT22;39655;53.210;5.768;2023-10-13T10:04:18;18.20;96.30
53748;DHT22;39655;53.210;5.768;2023-10-13T10:06:58;18.20;95.80
53748;DHT22;39655;53.210;5.768;2023-10-13T10:09:33;18.40;95.50
53748;DHT22;39655;53.210;5.768;2023-10-13T10:17:22;18.70;93.90
53748;DHT22;39655;53.210;5.768;2023-10-13T10:19:49;18.80;93.30
53748;DHT22;39655;53.210;5.768;2023-10-13T10:22:25;18.80;93.20
53748;DHT22;39655;53.210;5.768;2023-10-13T10:25:00;18.80;93.00
53748;DHT22;39655;53.210;5.768;2023-10-13T10:27:32;18.90;92.60
53748;DHT22;39655;53.210;5.768;2023-10-13T10:30:01;18.90;92.70
53748;DHT22;39655;53.210;5.768;2023-10-13T10:32:38;19.00;92.60
53748;DHT22;39655;53.210;5.768;2023-10-13T10:35:11;19.10;92.20
53748;DHT22;39655;53.210;5.768;2023-10-13T10:37:46;19.10;91.70
53748;DHT22;39655;53.210;5.768;2023-10-13T10:40:18;19.10;91.40
53748;DHT22;39655;53.210;5.768;2023-10-13T10:43:13;19.10;91.20
53748;DHT22;39655;53.210;5.768;2023-10-13T10:45:51;19.10;91.30
53748;DHT22;39655;53.210;5.768;2023-10-13T10:48:17;19.10;91.10
53748;DHT22;39655;53.210;5.768;2023-10-13T10:50:56;19.10;90.90
53748;DHT22;39655;53.210;5.768;2023-10-13T10:53:22;19.10;90.40
53748;DHT22;39655;53.210;5.768;2023-10-13T10:55:48;19.20;90.80
53748;DHT22;39655;53.210;5.768;2023-10-13T10:58:14;19.20;90.60
53748;DHT22;39655;53.210;5.768;2023-10-13T11:01:06;19.30;90.70
53748;DHT22;39655;53.210;5.768;2023-10-13T11:03:58;19.30;90.20
53748;DHT22;39655;53.210;5.768;2023-10-13T11:06:27;19.40;90.60
53748;DHT22;39655;53.210;5.768;2023-10-13T11:09:06;19.40;89.70
53748;DHT22;39655;53.210;5.768;2023-10-13T11:11:45;19.40;89.90
53748;DHT22;39655;53.210;5.768;2023-10-13T11:14:20;19.30;90.20
53748;DHT22;39655;53.210;5.768;2023-10-13T11:16:49;19.20;90.10
53748;DHT22;39655;53.210;5.768;2023-10-13T11:19:17;19.20;89.90
53748;DHT22;39655;53.210;5.768;2023-10-13T11:21:46;19.20;89.90
53748;DHT22;39655;53.210;5.768;2023-10-13T11:24:13;19.20;89.90
53748;DHT22;39655;53.210;5.768;2023-10-13T11:26:39;19.30;89.50
53748;DHT22;39655;53.210;5.768;2023-10-13T11:29:31;19.30;89.50
53748;DHT22;39655;53.210;5.768;2023-10-13T11:31:57;19.30;89.20
53748;DHT22;39655;53.210;5.768;2023-10-13T11:34:28;19.20;89.70
53748;DHT22;39655;53.210;5.768;2023-10-13T11:37:05;19.10;90.30
53748;DHT22;39655;53.210;5.768;2023-10-13T11:39:51;18.90;90.60
53748;DHT22;39655;53.210;5.768;2023-10-13T11:42:17;18.80;91.20
53748;DHT22;39655;53.210;5.768;2023-10-13T11:44:43;18.60;91.20
53748;DHT22;39655;53.210;5.768;2023-10-13T11:47:09;18.20;92.00
53748;DHT22;39655;53.210;5.768;2023-10-13T11:50:04;17.80;93.80
53748;DHT22;39655;53.210;5.768;2023-10-13T11:52:31;17.50;94.50
53748;DHT22;39655;53.210;5.768;2023-10-13T11:54:56;17.30;95.10
53748;DHT22;39655;53.210;5.768;2023-10-13T11:57:22;17.20;95.60
53748;DHT22;39655;53.210;5.768;2023-10-13T11:59:48;17.10;95.80
53748;DHT22;39655;53.210;5.768;2023-10-13T12:02:21;17.00;96.00
53748;DHT22;39655;53.210;5.768;2023-10-13T12:04:53;17.00;96.30
53748;DHT22;39655;53.210;5.768;2023-10-13T12:07:23;17.10;96.60
53748;DHT22;39655;53.210;5.768;2023-10-13T12:10:07;17.00;96.60
53748;DHT22;39655;53.210;5.768;2023-10-13T12:12:41;17.10;96.70
53748;DHT22;39655;53.210;5.768;2023-10-13T12:15:09;17.10;96.90
53748;DHT22;39655;53.210;5.768;2023-10-13T12:17:35;17.20;97.10
53748;DHT22;39655;53.210;5.768;2023-10-13T12:20:06;17.20;97.20
53748;DHT22;39655;53.210;5.768;2023-10-13T12:22:35;17.30;97.20
53748;DHT22;39655;53.210;5.768;2023-10-13T12:25:04;17.30;97.30
53748;DHT22;39655;53.210;5.768;2023-10-13T12:27:34;17.40;97.40
53748;DHT22;39655;53.210;5.768;2023-10-13T12:30:11;17.30;97.50
53748;DHT22;39655;53.210;5.768;2023-10-13T12:32:40;17.30;97.40
53748;DHT22;39655;53.210;5.768;2023-10-13T12:35:10;17.20;97.50
53748;DHT22;39655;53.210;5.768;2023-10-13T12:37:36;17.30;97.50
53748;DHT22;39655;53.210;5.768;2023-10-13T12:40:08;17.20;97.60
53748;DHT22;39655;53.210;5.768;2023-10-13T12:42:55;17.10;97.60
53748;DHT22;39655;53.210;5.768;2023-10-13T12:45:43;17.20;97.70
53748;DHT22;39655;53.210;5.768;2023-10-13T12:48:28;17.20;97.80
53748;DHT22;39655;53.210;5.768;2023-10-13T12:51:12;17.10;97.80
53748;DHT22;39655;53.210;5.768;2023-10-13T12:53:51;17.10;97.90
53748;DHT22;39655;53.210;5.768;2023-10-13T12:56:18;17.10;97.90
53748;DHT22;39655;53.210;5.768;2023-10-13T12:58:51;17.10;97.90
53748;DHT22;39655;53.210;5.768;2023-10-13T13:01:21;17.10;98.00
53748;DHT22;39655;53.210;5.768;2023-10-13T13:03:51;17.10;98.00
53748;DHT22;39655;53.210;5.768;2023-10-13T13:06:22;17.10;98.00
53748;DHT22;39655;53.210;5.768;2023-10-13T13:08:55;17.10;98.10
53748;DHT22;39655;53.210;5.768;2023-10-13T13:11:21;17.10;98.10
53748;DHT22;39655;53.210;5.768;2023-10-13T13:13:47;17.10;98.20
53748;DHT22;39655;53.210;5.768;2023-10-13T13:16:16;17.10;98.20
53748;DHT22;39655;53.210;5.768;2023-10-13T13:18:52;17.10;98.20
53748;DHT22;39655;53.210;5.768;2023-10-13T13:21:21;17.10;98.20
53748;DHT22;39655;53.210;5.768;2023-10-13T13:23:50;17.10;98.20
53748;DHT22;39655;53.210;5.768;2023-10-13T13:26:16;17.10;98.30
53748;DHT22;39655;53.210;5.768;2023-10-13T13:28:43;17.10;98.30
53748;DHT22;39655;53.210;5.768;2023-10-13T13:31:09;17.10;98.40
53748;DHT22;39655;53.210;5.768;2023-10-13T13:33:40;17.20;98.40
53748;DHT22;39655;53.210;5.768;2023-10-13T13:36:11;17.20;98.40
53748;DHT22;39655;53.210;5.768;2023-10-13T13:38:39;17.30;98.40
53748;DHT22;39655;53.210;5.768;2023-10-13T13:41:11;17.30;98.50
53748;DHT22;39655;53.210;5.768;2023-10-13T13:43:40;17.30;98.50
53748;DHT22;39655;53.210;5.768;2023-10-13T13:46:19;17.30;98.50
53748;DHT22;39655;53.210;5.768;2023-10-13T13:48:50;17.40;98.50
53748;DHT22;39655;53.210;5.768;2023-10-13T13:51:17;17.40;98.60
53748;DHT22;39655;53.210;5.768;2023-10-13T13:53:52;17.50;98.60
53748;DHT22;39655;53.210;5.768;2023-10-13T13:56:18;17.50;98.60
53748;DHT22;39655;53.210;5.768;2023-10-13T13:58:48;17.60;98.70
53748;DHT22;39655;53.210;5.768;2023-10-13T14:01:14;17.70;98.70
53748;DHT22;39655;53.210;5.768;2023-10-13T14:03:44;17.70;98.60
53748;DHT22;39655;53.210;5.768;2023-10-13T14:06:16;17.80;98.60
53748;DHT22;39655;53.210;5.768;2023-10-13T14:08:53;17.80;98.50
53748;DHT22;39655;53.210;5.768;2023-10-13T14:11:32;17.70;98.40
53748;DHT22;39655;53.210;5.768;2023-10-13T14:14:04;17.80;98.30
53748;DHT22;39655;53.210;5.768;2023-10-13T14:16:30;17.80;98.40
53748;DHT22;39655;53.210;5.768;2023-10-13T14:18:59;17.80;98.20
53748;DHT22;39655;53.210;5.768;2023-10-13T14:21:27;17.90;98.00
53748;DHT22;39655;53.210;5.768;2023-10-13T14:23:53;17.90;97.90
53748;DHT22;39655;53.210;5.768;2023-10-13T14:26:20;18.00;97.80
53748;DHT22;39655;53.210;5.768;2023-10-13T14:28:52;18.00;97.70
53748;DHT22;39655;53.210;5.768;2023-10-13T14:31:32;18.00;97.50
53748;DHT22;39655;53.210;5.768;2023-10-13T14:33:58;18.00;97.30
53748;DHT22;39655;53.210;5.768;2023-10-13T14:36:24;18.10;96.90
53748;DHT22;39655;53.210;5.768;2023-10-13T14:38:55;18.00;96.90
53748;DHT22;39655;53.210;5.768;2023-10-13T14:41:20;18.00;96.90
53748;DHT22;39655;53.210;5.768;2023-10-13T14:43:47;18.10;96.60
53748;DHT22;39655;53.210;5.768;2023-10-13T14:46:16;18.10;96.20
53748;DHT22;39655;53.210;5.768;2023-10-13T14:48:42;18.10;95.90
53748;DHT22;39655;53.210;5.768;2023-10-13T14:51:11;18.20;96.00
53748;DHT22;39655;53.210;5.768;2023-10-13T14:53:46;18.30;94.90
53748;DHT22;39655;53.210;5.768;2023-10-13T14:56:16;18.40;94.80
53748;DHT22;39655;53.210;5.768;2023-10-13T14:58:45;18.40;94.70
53748;DHT22;39655;53.210;5.768;2023-10-13T15:01:18;18.40;95.00
53748;DHT22;39655;53.210;5.768;2023-10-13T15:03:45;18.40;94.70
53748;DHT22;39655;53.210;5.768;2023-10-13T15:06:21;18.50;94.50
53748;DHT22;39655;53.210;5.768;2023-10-13T15:08:51;18.50;94.50
53748;DHT22;39655;53.210;5.768;2023-10-13T15:11:17;18.50;94.20
53748;DHT22;39655;53.210;5.768;2023-10-13T15:13:46;18.40;94.50
53748;DHT22;39655;53.210;5.768;2023-10-13T15:16:19;18.50;94.40
53748;DHT22;39655;53.210;5.768;2023-10-13T15:18:46;18.60;94.00
53748;DHT22;39655;53.210;5.768;2023-10-13T15:21:21;18.60;93.90
53748;DHT22;39655;53.210;5.768;2023-10-13T15:23:51;18.70;93.50
53748;DHT22;39655;53.210;5.768;2023-10-13T15:26:20;18.70;93.30
53748;DHT22;39655;53.210;5.768;2023-10-13T15:28:49;18.80;93.00
53748;DHT22;39655;53.210;5.768;2023-10-13T15:31:19;18.80;92.80
53748;DHT22;39655;53.210;5.768;2023-10-13T15:34:00;18.80;92.70
53748;DHT22;39655;53.210;5.768;2023-10-13T15:36:26;18.70;92.90
53748;DHT22;39655;53.210;5.768;2023-10-13T15:38:55;18.70;93.10
53748;DHT22;39655;53.210;5.768;2023-10-13T15:41:22;18.70;92.90
53748;DHT22;39655;53.210;5.768;2023-10-13T15:43:48;18.70;93.00
53748;DHT22;39655;53.210;5.768;2023-10-13T15:46:19;18.70;93.20
53748;DHT22;39655;53.210;5.768;2023-10-13T15:48:52;18.70;93.10
53748;DHT22;39655;53.210;5.768;2023-10-13T15:51:19;18.80;92.80
53748;DHT22;39655;53.210;5.768;2023-10-13T15:53:45;18.70;92.90
53748;DHT22;39655;53.210;5.768;2023-10-13T15:56:14;18.70;93.10
53748;DHT22;39655;53.210;5.768;2023-10-13T15:58:47;18.70;93.00
53748;DHT22;39655;53.210;5.768;2023-10-13T16:01:13;18.60;93.30
53748;DHT22;39655;53.210;5.768;2023-10-13T16:03:42;18.70;93.30
53748;DHT22;39655;53.210;5.768;2023-10-13T16:06:10;18.70;93.00
53748;DHT22;39655;53.210;5.768;2023-10-13T16:08:37;18.60;93.20
53748;DHT22;39655;53.210;5.768;2023-10-13T16:11:07;18.60;93.30
53748;DHT22;39655;53.210;5.768;2023-10-13T16:13:36;18.60;93.70
53748;DHT22;39655;53.210;5.768;2023-10-13T16:16:04;18.60;93.60
53748;DHT22;39655;53.210;5.768;2023-10-13T16:18:30;18.60;93.70
53748;DHT22;39655;53.210;5.768;2023-10-13T16:20:59;18.60;93.70
53748;DHT22;39655;53.210;5.768;2023-10-13T16:23:25;18.60;93.70